Time;durP1;ratioP1;P1;durP2;ratioP2;P2;SDS_P1;SDS_P2;PMS_P1;PMS_P2;Temp;Humidity;BMP_temperature;BMP_pressure;BME280_temperature;BME280_humidity;BME280_pressure;Samples;Min_cycle;Max_cycle;Signal;HPM_P1;HPM_P2
2023/01/16 00:01:38;;;;;;;;;;;;;;;;;;5001223;28;19921;-96
2023/01/16 00:04:07;;;;;;;;;;;;;;;;;;5001544;28;19929;-95
2023/01/16 00:06:35;;;;;;;;;;;;;;;;;;5001435;28;20098;-95
2023/01/16 00:09:02;;;;;;;;;;;;;;;;;;5001361;28;19928;-94
2023/01/16 00:11:28;;;;;;;;;;;;;;;;;;5000842;28;19921;-94
2023/01/16 00:13:54;;;;;;;;;;;;;;;;;;5001401;28;19940;-95
2023/01/16 00:16:21;;;;;;;;;;;;;;;;;;5005732;28;20028;-95
2023/01/16 00:18:47;;;;;;;;;;;;;;;;;;5001510;28;19932;-95
2023/01/16 00:21:15;;;;;;;;;;;;;;;;;;5001485;28;19968;-95
2023/01/16 00:23:44;;;;;;;;;;;;;;;;;;5001038;28;20016;-95
2023/01/16 00:26:11;;;;;;;;;;;;;;;;;;5000999;28;19956;-94
2023/01/16 00:28:37;;;;;;;;;;;;;;;;;;5001012;28;20431;-94
2023/01/16 00:31:04;;;;;;;;;;;;;;;;;;5001089;28;19921;-95
2023/01/16 00:33:30;;;;;;;;;;;;;;;;;;5000839;28;19922;-95
2023/01/16 00:35:56;;;;;;;;;;;;;;;;;;5000604;28;20178;-94
2023/01/16 00:38:22;;;;;;;;;;;;;;;;;;5000988;28;19921;-94
2023/01/16 00:49:28;;;;;;;;;;;;;;;;;;;;;
2023/01/16 00:54:50;;;;;;;;;;;;;;;;;;;;;
2023/01/16 01:03:07;;;;;;;;;;;;;;;;;;5007635;28;19928;-94
2023/01/16 01:05:33;;;;;;;;;;;;;;;;;;5000506;28;20392;-96
2023/01/16 01:08:07;;;;;;;;;;;;;;;;;;5000093;28;19979;-96
2023/01/16 01:10:35;;;;;;;;;;;;;;;;;;5000306;28;19976;-95
2023/01/16 01:13:01;;;;;;;;;;;;;;;;;;5000242;28;19933;-95
2023/01/16 01:15:27;;;;;;;;;;;;;;;;;;5000315;28;19985;-95
2023/01/16 01:17:53;;;;;;;;;;;;;;;;;;5000156;28;20028;-96
2023/01/16 01:20:19;;;;;;;;;;;;;;;;;;5000418;28;19921;-95
2023/01/16 01:22:46;;;;;;;;;;;;;;;;;;5000073;28;19977;-95
2023/01/16 01:25:14;;;;;;;;;;;;;;;;;;5000095;28;19925;-95
2023/01/16 01:27:43;;;;;;;;;;;;;;;;;;5000502;28;19971;-95
2023/01/16 01:30:09;;;;;;;;;;;;;;;;;;5006934;28;19913;-95
2023/01/16 01:32:37;;;;;;;;;;;;;;;;;;5011070;28;19925;-96
2023/01/16 01:35:04;;;;;;;;;;;;;;;;;;5000690;28;19921;-95
2023/01/16 01:37:30;;;;;;;;;;;;;;;;;;5000525;28;19925;-95
2023/01/16 01:39:56;;;;;;;;;;;;;;;;;;4999517;28;19991;-94
2023/01/16 01:45:09;;;;;;;;;;;;;;;;;;5016183;28;20356;-94
2023/01/16 01:47:38;;;;;;;;;;;;;;;;;;4999973;28;19921;-95
2023/01/16 01:50:04;;;;;;;;;;;;;;;;;;4999857;28;20091;-95
2023/01/16 01:52:33;;;;;;;;;;;;;;;;;;4999620;28;20118;-95
2023/01/16 01:54:59;;;;;;;;;;;;;;;;;;4999507;28;19921;-94
2023/01/16 01:57:25;;;;;;;;;;;;;;;;;;4999067;28;19971;-94
2023/01/16 01:59:51;;;;;;;;;;;;;;;;;;4999159;28;19925;-94
2023/01/16 02:02:19;;;;;;;;;;;;;;;;;;4999206;28;19925;-93
2023/01/16 02:04:44;;;;;;;;;;;;;;;;;;4999220;28;20475;-94
2023/01/16 02:07:10;;;;;;;;;;;;;;;;;;4999042;28;19929;-94
2023/01/16 02:09:36;;;;;;;;;;;;;;;;;;4999264;28;20005;-94
2023/01/16 02:12:04;;;;;;;;;;;;;;;;;;4998994;28;20269;-93
2023/01/16 02:14:30;;;;;;;;;;;;;;;;;;4999384;28;19933;-94
2023/01/16 02:19:41;;;;;;;;;;;;;;;;;;5015352;28;20206;-94
2023/01/16 02:22:07;;;;;;;;;;;;;;;;;;4999236;28;19991;-93
2023/01/16 02:24:33;;;;;;;;;;;;;;;;;;5015246;28;19921;-94
2023/01/16 02:26:58;;;;;;;;;;;;;;;;;;4998026;28;20483;-93
2023/01/16 02:29:24;;;;;;;;;;;;;;;;;;4998944;28;19921;-95
2023/01/16 02:31:50;;;;;;;;;;;;;;;;;;4999321;28;20043;-95
2023/01/16 02:34:20;;;;;;;;;;;;;;;;;;5001011;28;20086;-95
2023/01/16 02:36:46;;;;;;;;;;;;;;;;;;5001133;28;20044;-95
2023/01/16 02:39:12;;;;;;;;;;;;;;;;;;4999036;28;20017;-93
2023/01/16 02:41:41;;;;;;;;;;;;;;;;;;4998976;28;20205;-95
2023/01/16 02:44:07;;;;;;;;;;;;;;;;;;4998810;28;19957;-94
2023/01/16 02:46:33;;;;;;;;;;;;;;;;;;4998533;28;19948;-94
2023/01/16 02:48:59;;;;;;;;;;;;;;;;;;4998356;28;20086;-94
2023/01/16 02:51:25;;;;;;;;;;;;;;;;;;4998745;28;19978;-94
2023/01/16 02:53:51;;;;;;;;;;;;;;;;;;5000970;28;19936;-95
2023/01/16 02:56:17;;;;;;;;;;;;;;;;;;4998684;28;20372;-95
2023/01/16 02:58:52;;;;;;;;;;;;;;;;;;4998409;28;19975;-95
2023/01/16 03:01:18;;;;;;;;;;;;;;;;;;4998320;28;19925;-94
2023/01/16 03:03:44;;;;;;;;;;;;;;;;;;4998645;28;20403;-94
2023/01/16 03:06:10;;;;;;;;;;;;;;;;;;4998627;28;19925;-94
2023/01/16 03:08:36;;;;;;;;;;;;;;;;;;4998387;28;19925;-93
2023/01/16 03:11:04;;;;;;;;;;;;;;;;;;4998340;28;19994;-94
2023/01/16 03:13:30;;;;;;;;;;;;;;;;;;4998064;28;19921;-94
2023/01/16 03:15:56;;;;;;;;;;;;;;;;;;4998227;28;19927;-93
2023/01/16 03:18:21;;;;;;;;;;;;;;;;;;5014993;28;20272;-94
2023/01/16 03:20:47;;;;;;;;;;;;;;;;;;4998543;28;19921;-95
2023/01/16 03:23:13;;;;;;;;;;;;;;;;;;4998289;28;19996;-95
2023/01/16 03:25:39;;;;;;;;;;;;;;;;;;4998013;28;19983;-94
2023/01/16 03:28:05;;;;;;;;;;;;;;;;;;4998211;28;19921;-94
2023/01/16 03:30:31;;;;;;;;;;;;;;;;;;4997963;28;19921;-93
2023/01/16 03:32:57;;;;;;;;;;;;;;;;;;4998602;28;20231;-94
2023/01/16 03:35:26;;;;;;;;;;;;;;;;;;4998754;28;19921;-95
2023/01/16 03:37:52;;;;;;;;;;;;;;;;;;4998350;28;19926;-95
2023/01/16 03:40:18;;;;;;;;;;;;;;;;;;4998180;28;19928;-95
2023/01/16 03:42:44;;;;;;;;;;;;;;;;;;4998679;28;20016;-94
2023/01/16 03:45:10;;;;;;;;;;;;;;;;;;4997824;28;20384;-93
2023/01/16 03:47:36;;;;;;;;;;;;;;;;;;5001281;28;19931;-93
2023/01/16 03:50:02;;;;;;;;;;;;;;;;;;5001400;28;19971;-94
2023/01/16 03:52:28;;;;;;;;;;;;;;;;;;5001797;28;19922;-94
2023/01/16 03:54:54;;;;;;;;;;;;;;;;;;5001553;28;19999;-94
2023/01/16 03:57:20;;;;;;;;;;;;;;;;;;5001482;28;19932;-95
2023/01/16 03:59:46;;;;;;;;;;;;;;;;;;5001666;28;19929;-92
2023/01/16 04:02:12;;;;;;;;;;;;;;;;;;5001008;28;19974;-93
2023/01/16 04:04:40;;;;;;;;;;;;;;;;;;5001191;28;19973;-93
2023/01/16 04:07:06;;;;;;;;;;;;;;;;;;5001580;28;19960;-93
2023/01/16 04:09:32;;;;;;;;;;;;;;;;;;5001326;28;20410;-94
2023/01/16 04:11:58;;;;;;;;;;;;;;;;;;5001463;28;20012;-94
2023/01/16 04:14:24;;;;;;;;;;;;;;;;;;5006604;28;19928;-95
2023/01/16 04:16:50;;;;;;;;;;;;;;;;;;5011081;28;19952;-94
2023/01/16 04:19:16;;;;;;;;;;;;;;;;;;5002325;28;20421;-95
2023/01/16 04:21:42;;;;;;;;;;;;;;;;;;5001809;28;19972;-96
2023/01/16 04:24:08;;;;;;;;;;;;;;;;;;5001166;28;20365;-95
2023/01/16 04:26:34;;;;;;;;;;;;;;;;;;5000966;28;19925;-94
2023/01/16 04:29:01;;;;;;;;;;;;;;;;;;5000977;28;20015;-94
2023/01/16 04:31:28;;;;;;;;;;;;;;;;;;5001158;28;19997;-94
2023/01/16 04:33:54;;;;;;;;;;;;;;;;;;5001251;28;20059;-94
2023/01/16 04:36:20;;;;;;;;;;;;;;;;;;5000632;28;20008;-95
2023/01/16 04:38:46;;;;;;;;;;;;;;;;;;5001071;28;19921;-94
2023/01/16 04:41:12;;;;;;;;;;;;;;;;;;5000519;28;19928;-95
2023/01/16 04:43:38;;;;;;;;;;;;;;;;;;5000750;28;19925;-94
2023/01/16 04:46:03;;;;;;;;;;;;;;;;;;5000717;28;19933;-94
2023/01/16 04:48:29;;;;;;;;;;;;;;;;;;5000724;28;19921;-93
2023/01/16 04:50:55;;;;;;;;;;;;;;;;;;5000898;28;19921;-94
2023/01/16 04:53:24;;;;;;;;;;;;;;;;;;5000379;28;19948;-93
2023/01/16 04:55:50;;;;;;;;;;;;;;;;;;5000666;28;20009;-94
2023/01/16 05:01:02;;;;;;;;;;;;;;;;;;5003304;28;19928;-94
2023/01/16 05:03:28;;;;;;;;;;;;;;;;;;4999911;28;20454;-93
2023/01/16 05:05:54;;;;;;;;;;;;;;;;;;5000283;28;19925;-93
2023/01/16 05:08:20;;;;;;;;;;;;;;;;;;4999978;28;19975;-93
2023/01/16 05:10:46;;;;;;;;;;;;;;;;;;4999747;28;19928;-93
2023/01/16 05:13:12;;;;;;;;;;;;;;;;;;4999990;28;19921;-93
2023/01/16 05:15:37;;;;;;;;;;;;;;;;;;5000141;28;20330;-93
2023/01/16 05:18:03;;;;;;;;;;;;;;;;;;5000440;28;20290;-94
2023/01/16 05:20:29;;;;;;;;;;;;;;;;;;5000198;28;19921;-94
2023/01/16 05:22:55;;;;;;;;;;;;;;;;;;5000089;28;20412;-93
2023/01/16 05:25:21;;;;;;;;;;;;;;;;;;5000208;28;20457;-94
2023/01/16 05:27:47;;;;;;;;;;;;;;;;;;4999936;28;19921;-94
2023/01/16 05:30:13;;;;;;;;;;;;;;;;;;4999847;28;19944;-95
2023/01/16 05:32:39;;;;;;;;;;;;;;;;;;5000292;28;19966;-94
2023/01/16 05:35:05;;;;;;;;;;;;;;;;;;4999903;28;19936;-94
2023/01/16 05:37:31;;;;;;;;;;;;;;;;;;4999670;28;19932;-94
2023/01/16 05:39:57;;;;;;;;;;;;;;;;;;4999753;28;20004;-94
2023/01/16 05:42:24;;;;;;;;;;;;;;;;;;4999706;28;19928;-94
2023/01/16 05:44:50;;;;;;;;;;;;;;;;;;4999687;28;19995;-94
2023/01/16 05:47:16;;;;;;;;;;;;;;;;;;5001739;28;19929;-95
2023/01/16 05:49:42;;;;;;;;;;;;;;;;;;5000046;28;19921;-93
2023/01/16 05:52:08;;;;;;;;;;;;;;;;;;5015808;28;19921;-93
2023/01/16 05:54:34;;;;;;;;;;;;;;;;;;4999268;28;19928;-93
2023/01/16 05:57:00;;;;;;;;;;;;;;;;;;4999626;28;20280;-93
2023/01/16 05:59:26;;;;;;;;;;;;;;;;;;5000023;28;19929;-93
2023/01/16 06:01:52;;;;;;;;;;;;;;;;;;4999296;28;20395;-93
2023/01/16 06:04:19;;;;;;;;;;;;;;;;;;4998969;28;19921;-93
2023/01/16 06:06:45;;;;;;;;;;;;;;;;;;4997947;28;19925;-93
2023/01/16 06:09:10;;;;;;;;;;;;;;;;;;4998078;28;19943;-93
2023/01/16 06:11:36;;;;;;;;;;;;;;;;;;4999091;28;19925;-95
2023/01/16 06:14:04;;;;;;;;;;;;;;;;;;4999087;28;20430;-95
2023/01/16 06:16:30;;;;;;;;;;;;;;;;;;4999013;28;19921;-93
2023/01/16 06:18:56;;;;;;;;;;;;;;;;;;4998915;28;19987;-93
2023/01/16 06:21:22;;;;;;;;;;;;;;;;;;4998887;28;19944;-93
2023/01/16 06:23:48;;;;;;;;;;;;;;;;;;4998936;28;20363;-95
2023/01/16 06:26:14;;;;;;;;;;;;;;;;;;4998668;28;19932;-93
2023/01/16 06:28:40;;;;;;;;;;;;;;;;;;4998393;28;19964;-92
2023/01/16 06:31:06;;;;;;;;;;;;;;;;;;5015309;28;19931;-93
2023/01/16 06:33:32;;;;;;;;;;;;;;;;;;4998688;28;19921;-94
2023/01/16 06:35:58;;;;;;;;;;;;;;;;;;4998327;28;19929;-93
2023/01/16 06:38:24;;;;;;;;;;;;;;;;;;4998770;28;19999;-93
2023/01/16 06:40:55;;;;;;;;;;;;;;;;;;4998508;28;19995;-95
2023/01/16 06:43:21;;;;;;;;;;;;;;;;;;4999031;28;19968;-93
2023/01/16 06:45:47;;;;;;;;;;;;;;;;;;4998445;28;20026;-93
2023/01/16 06:48:13;;;;;;;;;;;;;;;;;;4998183;28;19921;-94
2023/01/16 06:50:39;;;;;;;;;;;;;;;;;;4998684;28;19921;-95
2023/01/16 06:53:05;;;;;;;;;;;;;;;;;;4998519;28;19920;-94
2023/01/16 06:55:33;;;;;;;;;;;;;;;;;;4998531;28;19921;-94
2023/01/16 06:57:59;;;;;;;;;;;;;;;;;;4998488;28;20063;-95
2023/01/16 07:00:25;;;;;;;;;;;;;;;;;;4998541;28;19921;-95
2023/01/16 07:02:54;;;;;;;;;;;;;;;;;;4998258;28;20316;-94
2023/01/16 07:05:22;;;;;;;;;;;;;;;;;;4998569;28;19931;-93
2023/01/16 07:07:48;;;;;;;;;;;;;;;;;;4998084;28;19980;-94
2023/01/16 07:10:14;;;;;;;;;;;;;;;;;;4998502;28;19921;-95
2023/01/16 07:12:43;;;;;;;;;;;;;;;;;;4998800;28;19972;-95
2023/01/16 07:23:38;;;;;;;;;;;;;;;;;;5018538;28;19925;-94
2023/01/16 07:26:04;;;;;;;;;;;;;;;;;;5002131;28;19925;-95
2023/01/16 07:28:30;;;;;;;;;;;;;;;;;;5002002;28;19928;-93
2023/01/16 07:34:12;;;;;;;;;;;;;;;;;;5016513;28;19921;-96
2023/01/16 07:42:34;;;;;;;;;;;;;;;;;;5016250;28;19936;-94
2023/01/16 07:45:17;;;;;;;;;;;;;;;;;;5019853;28;19925;-94
2023/01/16 07:53:24;;;;;;;;;;;;;;;;;;;;;
2023/01/16 08:01:46;;;;;;;;;;;;;;;;;;5380146;22;19936;-94
2023/01/16 08:04:12;;;;;;;;;;;;;;;;;;5002440;28;20024;-93
2023/01/16 08:06:44;;;;;;;;;;;;;;;;;;5003724;28;20028;-93
2023/01/16 08:09:20;;;;;;;;;;;;;;;;;;;;;
2023/01/16 08:11:53;;;;;;;;;;;;;;;;;;5021816;28;20373;-92
2023/01/16 08:14:19;;;;;;;;;;;;;;;;;;5001536;28;20011;-93
2023/01/16 08:16:45;;;;;;;;;;;;;;;;;;5001653;28;19925;-93
2023/01/16 08:19:11;;;;;;;;;;;;;;;;;;5001190;28;19921;-95
2023/01/16 08:21:37;;;;;;;;;;;;;;;;;;5001620;28;19940;-95
2023/01/16 08:24:25;;;;;;;;;;;;;;;;;;5021716;28;19967;-93
2023/01/16 08:27:09;;;;;;;;;;;;;;;;;;5020361;28;19925;-94
2023/01/16 08:32:45;;;;;;;;;;;;;;;;;;4959202;28;20413;-94
2023/01/16 08:35:27;;;;;;;;;;;;;;;;;;5017354;28;19964;-95
2023/01/16 08:38:08;;;;;;;;;;;;;;;;;;5015699;28;19968;-95
2023/01/16 08:40:36;;;;;;;;;;;;;;;;;;5001324;28;19921;-96
2023/01/16 08:51:23;;;;;;;;;;;;;;;;;;5034637;28;19928;-94
2023/01/16 08:53:49;;;;;;;;;;;;;;;;;;5000505;28;20426;-95
2023/01/16 08:56:16;;;;;;;;;;;;;;;;;;5000682;28;19921;-95
2023/01/16 09:22:44;;;;;;;;;;;;;;;;;;5035902;28;19925;-95
2023/01/16 09:28:31;;;;;;;;;;;;;;;;;;4951383;28;19973;-96
2023/01/16 10:49:58;;;;;;;;;;;;;;;;;;5007923;28;19955;-96
2023/01/16 10:52:24;;;;;;;;;;;;;;;;;;4992193;28;19933;-91
2023/01/16 10:54:50;;;;;;;;;;;;;;;;;;4992036;28;19926;-91
2023/01/16 10:57:16;;;;;;;;;;;;;;;;;;4990885;28;19975;-90
2023/01/16 10:59:42;;;;;;;;;;;;;;;;;;4978986;28;19929;-94
2023/01/16 11:02:08;;;;;;;;;;;;;;;;;;4975713;28;19926;-90
2023/01/16 11:04:34;;;;;;;;;;;;;;;;;;4971953;28;19922;-90
2023/01/16 11:07:00;;;;;;;;;;;;;;;;;;4957951;28;19949;-92
2023/01/16 11:09:29;;;;;;;;;;;;;;;;;;4959852;28;20437;-94
2023/01/16 11:20:12;;;;;;;;;;;;;;;;;;4972051;28;20012;-91
2023/01/16 11:22:38;;;;;;;;;;;;;;;;;;4956177;28;20031;-91
2023/01/16 11:25:04;;;;;;;;;;;;;;;;;;4956115;28;19926;-90
2023/01/16 11:27:30;;;;;;;;;;;;;;;;;;4972271;28;19929;-93
2023/01/16 11:30:00;;;;;;;;;;;;;;;;;;4956295;28;20617;-93
2023/01/16 11:32:28;;;;;;;;;;;;;;;;;;4956553;28;19972;-90
2023/01/16 11:34:54;;;;;;;;;;;;;;;;;;4958734;28;19941;-92
2023/01/16 11:37:20;;;;;;;;;;;;;;;;;;4956421;28;20234;-92
2023/01/16 11:39:46;;;;;;;;;;;;;;;;;;4956337;28;19922;-91
2023/01/16 11:46:02;;;;;;;;;;;;;;;;;;4956239;28;19922;-93
2023/01/16 11:47:43;;;;;;;;;;;;;;;;;;4974795;28;19995;-94
2023/01/16 11:50:09;;;;;;;;;;;;;;;;;;4978736;28;19926;-93
2023/01/16 11:52:36;;;;;;;;;;;;;;;;;;4978851;28;19944;-93
2023/01/16 11:55:02;;;;;;;;;;;;;;;;;;4978468;28;19929;-93
2023/01/16 11:57:28;;;;;;;;;;;;;;;;;;4978698;28;19921;-93
2023/01/16 11:59:54;;;;;;;;;;;;;;;;;;4978118;28;19992;-93
2023/01/16 12:02:20;;;;;;;;;;;;;;;;;;4978350;28;19932;-94
2023/01/16 12:05:53;;;;;;;;;;;;;;;;;;4978513;28;19925;-94
2023/01/16 12:07:32;;;;;;;;;;;;;;;;;;4995275;28;20384;-94
2023/01/16 12:09:58;;;;;;;;;;;;;;;;;;4982425;28;19926;-92
2023/01/16 12:15:09;;;;;;;;;;;;;;;;;;4998405;28;19921;-92
2023/01/16 12:17:35;;;;;;;;;;;;;;;;;;4981858;28;20384;-95
2023/01/16 12:20:01;;;;;;;;;;;;;;;;;;4984517;28;19925;-90
2023/01/16 12:22:27;;;;;;;;;;;;;;;;;;4981766;28;19932;-92
2023/01/16 12:24:53;;;;;;;;;;;;;;;;;;4998067;28;20028;-92
2023/01/16 12:27:19;;;;;;;;;;;;;;;;;;4981515;28;20112;-93
2023/01/16 12:29:48;;;;;;;;;;;;;;;;;;4982076;28;19964;-94
2023/01/16 12:32:14;;;;;;;;;;;;;;;;;;4981121;28;20369;-90
2023/01/16 12:34:39;;;;;;;;;;;;;;;;;;4981707;28;19928;-91
2023/01/16 12:37:05;;;;;;;;;;;;;;;;;;4997205;28;19925;-90
2023/01/16 12:39:31;;;;;;;;;;;;;;;;;;4981244;28;19976;-91
2023/01/16 12:44:42;;;;;;;;;;;;;;;;;;4997383;28;19922;-91
2023/01/16 12:47:09;;;;;;;;;;;;;;;;;;4997698;28;19922;-91
2023/01/16 12:49:35;;;;;;;;;;;;;;;;;;4980947;28;19936;-91
2023/01/16 12:52:01;;;;;;;;;;;;;;;;;;4982446;28;20027;-92
2023/01/16 12:54:27;;;;;;;;;;;;;;;;;;4981210;28;19925;-92
2023/01/16 12:56:53;;;;;;;;;;;;;;;;;;4981036;28;19922;-90
2023/01/16 12:59:19;;;;;;;;;;;;;;;;;;4996775;28;19933;-90
2023/01/16 13:01:45;;;;;;;;;;;;;;;;;;4980595;28;19925;-91
2023/01/16 13:04:11;;;;;;;;;;;;;;;;;;4996931;28;19922;-92
2023/01/16 13:06:37;;;;;;;;;;;;;;;;;;4996133;28;19936;-88
2023/01/16 13:09:09;;;;;;;;;;;;;;;;;;4980034;28;19921;-92
2023/01/16 13:14:22;;;;;;;;;;;;;;;;;;4997031;28;20372;-92
2023/01/16 13:16:48;;;;;;;;;;;;;;;;;;4997268;28;19921;-93
2023/01/16 13:19:14;;;;;;;;;;;;;;;;;;4979538;28;19960;-92
2023/01/16 13:21:40;;;;;;;;;;;;;;;;;;4980439;28;19929;-91
2023/01/16 13:24:06;;;;;;;;;;;;;;;;;;4996427;28;19921;-90
2023/01/16 13:26:32;;;;;;;;;;;;;;;;;;4996631;28;19925;-94
2023/01/16 13:28:58;;;;;;;;;;;;;;;;;;4981062;28;20034;-92
2023/01/16 13:31:24;;;;;;;;;;;;;;;;;;4980839;28;20047;-93
2023/01/16 13:33:50;;;;;;;;;;;;;;;;;;4998485;28;20261;-92
2023/01/16 13:36:16;;;;;;;;;;;;;;;;;;4980969;28;19929;-93
2023/01/16 13:38:41;;;;;;;;;;;;;;;;;;4997972;28;20017;-91
2023/01/16 13:41:11;;;;;;;;;;;;;;;;;;4996413;28;19945;-95
2023/01/16 13:46:41;;;;;;;;;;;;;;;;;;4995796;28;20284;-91
2023/01/16 13:49:09;;;;;;;;;;;;;;;;;;4979715;28;19979;-94
2023/01/16 13:51:37;;;;;;;;;;;;;;;;;;4996922;28;19921;-94
2023/01/16 13:54:05;;;;;;;;;;;;;;;;;;4980106;28;19975;-93
2023/01/16 13:56:31;;;;;;;;;;;;;;;;;;4979881;28;20357;-95
2023/01/16 14:02:07;;;;;;;;;;;;;;;;;;4996958;28;19921;-95
2023/01/16 14:05:23;;;;;;;;;;;;;;;;;;4996156;28;20076;-95
2023/01/16 14:10:09;;;;;;;;;;;;;;;;;;4994992;28;19925;-89
2023/01/16 14:12:35;;;;;;;;;;;;;;;;;;4996761;28;20289;-89
2023/01/16 14:17:46;;;;;;;;;;;;;;;;;;5014675;28;19921;-88
2023/01/16 14:20:12;;;;;;;;;;;;;;;;;;5014769;28;19921;-90
2023/01/16 14:25:03;;;;;;;;;;;;;;;;;;5014559;28;19928;-90
2023/01/16 14:27:29;;;;;;;;;;;;;;;;;;5014835;28;19925;-91
2023/01/16 14:29:55;;;;;;;;;;;;;;;;;;5014556;28;20387;-92
2023/01/16 14:32:21;;;;;;;;;;;;;;;;;;5015353;28;20280;-90
2023/01/16 14:34:50;;;;;;;;;;;;;;;;;;5014705;28;20107;-93
2023/01/16 14:37:15;;;;;;;;;;;;;;;;;;5017454;28;20412;-92
2023/01/16 14:39:41;;;;;;;;;;;;;;;;;;5018484;28;19953;-91
2023/01/16 14:55:51;;;;;;;;;;;;;;;;;;5017169;28;19928;-91
2023/01/16 14:58:17;;;;;;;;;;;;;;;;;;5017964;28;19925;-92
2023/01/16 15:00:43;;;;;;;;;;;;;;;;;;5015973;28;20438;-92
2023/01/16 15:03:09;;;;;;;;;;;;;;;;;;5014484;28;19928;-91
2023/01/16 15:05:50;;;;;;;;;;;;;;;;;;5014777;28;19921;-91
2023/01/16 15:08:16;;;;;;;;;;;;;;;;;;5014438;28;19968;-90
2023/01/16 15:10:42;;;;;;;;;;;;;;;;;;5014201;28;20320;-91
2023/01/16 15:13:08;;;;;;;;;;;;;;;;;;5014252;28;19925;-90
2023/01/16 15:15:34;;;;;;;;;;;;;;;;;;5014140;28;19927;-91
2023/01/16 15:23:29;;;;;;;;;;;;;;;;;;5014739;28;20008;-90
2023/01/16 15:25:58;;;;;;;;;;;;;;;;;;5014867;28;19963;-94
2023/01/16 15:28:24;;;;;;;;;;;;;;;;;;5014685;28;19925;-91
2023/01/16 15:30:53;;;;;;;;;;;;;;;;;;5014489;28;20017;-89
2023/01/16 15:36:05;;;;;;;;;;;;;;;;;;5000136;28;20360;-90
2023/01/16 15:38:31;;;;;;;;;;;;;;;;;;4994884;28;19997;-90
2023/01/16 15:40:57;;;;;;;;;;;;;;;;;;4994822;28;19992;-90
2023/01/16 15:48:53;;;;;;;;;;;;;;;;;;5028108;28;19926;-95
2023/01/16 15:51:18;;;;;;;;;;;;;;;;;;5011918;28;20412;-92
2023/01/16 15:53:46;;;;;;;;;;;;;;;;;;4999950;28;19921;-92
2023/01/16 15:56:12;;;;;;;;;;;;;;;;;;4979673;28;20269;-92
2023/01/16 15:58:38;;;;;;;;;;;;;;;;;;4979301;28;19922;-92
2023/01/16 16:01:04;;;;;;;;;;;;;;;;;;4979224;28;19932;-94
2023/01/16 16:03:30;;;;;;;;;;;;;;;;;;4979765;28;19922;-94
2023/01/16 16:05:56;;;;;;;;;;;;;;;;;;4979238;28;19933;-93
2023/01/16 16:11:54;;;;;;;;;;;;;;;;;;4977977;28;19926;-90
2023/01/16 16:19:50;;;;;;;;;;;;;;;;;;4995748;28;19921;-90
2023/01/16 16:25:01;;;;;;;;;;;;;;;;;;5004283;28;19928;-92
2023/01/16 16:27:27;;;;;;;;;;;;;;;;;;4991723;28;19932;-92
2023/01/16 16:29:53;;;;;;;;;;;;;;;;;;4979969;28;20008;-92
2023/01/16 16:32:19;;;;;;;;;;;;;;;;;;5006734;28;19922;-91
2023/01/16 16:34:45;;;;;;;;;;;;;;;;;;4980310;28;19933;-92
2023/01/16 16:37:11;;;;;;;;;;;;;;;;;;4977712;28;19964;-91
2023/01/16 16:39:38;;;;;;;;;;;;;;;;;;4978388;28;19925;-93
2023/01/16 16:44:49;;;;;;;;;;;;;;;;;;5012883;28;19987;-93
2023/01/16 16:47:25;;;;;;;;;;;;;;;;;;5007527;28;19926;-95
2023/01/16 16:50:04;;;;;;;;;;;;;;;;;;5867169;22;20247;-94
2023/01/16 16:52:40;;;;;;;;;;;;;;;;;;5019978;28;20004;-93
2023/01/16 16:55:06;;;;;;;;;;;;;;;;;;5001255;28;19944;-92
2023/01/16 16:57:32;;;;;;;;;;;;;;;;;;5001108;28;19996;-92
2023/01/16 16:59:57;;;;;;;;;;;;;;;;;;4999145;28;19925;-90
2023/01/16 17:02:23;;;;;;;;;;;;;;;;;;4997149;28;20380;-94
2023/01/16 17:04:49;;;;;;;;;;;;;;;;;;4996940;28;20436;-90
2023/01/16 17:07:16;;;;;;;;;;;;;;;;;;5013053;28;20020;-93
2023/01/16 17:09:47;;;;;;;;;;;;;;;;;;4997557;28;20015;-94
2023/01/16 17:18:09;;;;;;;;;;;;;;;;;;5005814;28;20427;-91
2023/01/16 17:20:35;;;;;;;;;;;;;;;;;;4996970;28;19925;-89
2023/01/16 17:23:03;;;;;;;;;;;;;;;;;;4996654;28;19948;-92
2023/01/16 17:25:30;;;;;;;;;;;;;;;;;;4998116;28;19987;-95
2023/01/16 17:28:19;;;;;;;;;;;;;;;;;;5014341;28;19933;-94
2023/01/16 17:30:56;;;;;;;;;;;;;;;;;;5013325;28;19948;-93
2023/01/16 17:33:40;;;;;;;;;;;;;;;;;;5016570;28;19975;-95
2023/01/16 17:36:12;;;;;;;;;;;;;;;;;;5013558;28;20281;-96
2023/01/16 17:41:14;;;;;;;;;;;;;;;;;;6062027;22;19919;-93
2023/01/16 17:46:35;;;;;;;;;;;;;;;;;;;;;
2023/01/16 17:49:11;;;;;;;;;;;;;;;;;;5034017;28;19967;-94
2023/01/16 18:05:35;;;;;;;;;;;;;;;;;;5756894;22;19925;-94
2023/01/16 18:08:04;;;;;;;;;;;;;;;;;;4998478;28;19928;-94
2023/01/16 18:10:30;;;;;;;;;;;;;;;;;;5014791;28;19966;-94
2023/01/16 18:18:28;;;;;;;;;;;;;;;;;;5014116;28;19937;-93
2023/01/16 18:23:44;;;;;;;;;;;;;;;;;;5015125;28;20403;-95
2023/01/16 18:26:10;;;;;;;;;;;;;;;;;;4999405;28;19921;-95
2023/01/16 18:28:39;;;;;;;;;;;;;;;;;;5015805;28;19930;-95
2023/01/16 18:31:05;;;;;;;;;;;;;;;;;;5015491;28;19927;-92
2023/01/16 18:33:33;;;;;;;;;;;;;;;;;;5006658;28;20027;-94
2023/01/16 18:36:01;;;;;;;;;;;;;;;;;;4999352;28;19964;-94
2023/01/16 19:02:55;;;;;;;;;;;;;;;;;;5015100;28;20057;-94
2023/01/16 19:05:21;;;;;;;;;;;;;;;;;;4998609;28;20001;-93
2023/01/16 19:07:47;;;;;;;;;;;;;;;;;;4998612;28;19926;-93
2023/01/16 19:10:13;;;;;;;;;;;;;;;;;;4998485;28;19921;-92
2023/01/16 19:12:39;;;;;;;;;;;;;;;;;;4999094;28;19921;-95
2023/01/16 19:18:12;;;;;;;;;;;;;;;;;;5014090;28;19921;-94
2023/01/16 19:20:40;;;;;;;;;;;;;;;;;;5018890;28;19925;-91
2023/01/16 19:23:06;;;;;;;;;;;;;;;;;;5002545;28;19928;-94
2023/01/16 19:28:24;;;;;;;;;;;;;;;;;;5018384;28;20131;-91
2023/01/16 19:30:50;;;;;;;;;;;;;;;;;;5002136;28;20364;-92
2023/01/16 19:33:26;;;;;;;;;;;;;;;;;;5001702;28;19931;-96
2023/01/16 19:38:44;;;;;;;;;;;;;;;;;;5012780;28;20253;-96
2023/01/16 19:46:41;;;;;;;;;;;;;;;;;;5036310;28;19927;-96
2023/01/16 19:47:08;;;;;;;;;;;;;;;;;;;;;
2023/01/16 19:52:20;;;;;;;;;;;;;;;;;;5032221;28;20020;-91
2023/01/16 20:25:48;;;;;;;;;;;;;;;;;;5034028;28;19925;-93
2023/01/16 20:28:14;;;;;;;;;;;;;;;;;;4990166;28;20242;-91
2023/01/16 20:30:56;;;;;;;;;;;;;;;;;;4997166;28;19922;-91
2023/01/16 20:33:23;;;;;;;;;;;;;;;;;;4997275;28;19944;-91
2023/01/16 20:35:49;;;;;;;;;;;;;;;;;;4997032;28;19922;-89
2023/01/16 20:38:15;;;;;;;;;;;;;;;;;;4996633;28;20396;-91
2023/01/16 20:40:41;;;;;;;;;;;;;;;;;;4996789;28;19921;-90
2023/01/16 20:45:55;;;;;;;;;;;;;;;;;;5012470;28;19929;-90
2023/01/16 20:48:21;;;;;;;;;;;;;;;;;;4997010;28;19925;-91
2023/01/16 20:53:47;;;;;;;;;;;;;;;;;;5000322;28;20005;-92
2023/01/16 20:56:13;;;;;;;;;;;;;;;;;;4997229;28;19929;-91
2023/01/16 20:58:39;;;;;;;;;;;;;;;;;;4997538;28;19968;-93
2023/01/16 21:01:05;;;;;;;;;;;;;;;;;;4997646;28;20063;-91
2023/01/16 21:03:31;;;;;;;;;;;;;;;;;;4996743;28;20000;-92
2023/01/16 21:05:58;;;;;;;;;;;;;;;;;;4996679;28;20028;-90
2023/01/16 21:08:24;;;;;;;;;;;;;;;;;;4996268;28;19936;-90
2023/01/16 21:10:50;;;;;;;;;;;;;;;;;;4996317;28;19921;-91
2023/01/16 21:27:25;;;;;;;;;;;;;;;;;;;;;
2023/01/16 21:35:09;;;;;;;;;;;;;;;;;;5033087;28;19925;-94
2023/01/16 21:56:27;;;;;;;;;;;;;;;;;;5005023;28;19921;-93
2023/01/16 22:22:23;;;;;;;;;;;;;;;;;;;;;
2023/01/16 22:27:49;;;;;;;;;;;;;;;;;;;;;
2023/01/16 22:41:59;;;;;;;;;;;;;;;;;;4949487;28;19922;-96
2023/01/16 22:50:12;;;;;;;;;;;;;;;;;;4950032;28;20025;-96
2023/01/16 23:03:56;;;;;;;;;;;;;;;;;;4949871;28;19950;-95
2023/01/16 23:07:03;;;;;;;;;;;;;;;;;;;;;
2023/01/16 23:33:23;;;;;;;;;;;;;;;;;;;;;
2023/01/16 23:44:34;;;;;;;;;;;;;;;;;;4916486;29;20017;-96
2023/01/16 23:47:09;;;;;;;;;;;;;;;;;;4901108;29;19931;-94
2023/01/16 23:52:33;;;;;;;;;;;;;;;;;;4917784;29;20026;-96
